sensor_id;sensor_type;location;lat;lon;timestamp;pressure;altitude;pressure_sealevel;temperature;humidity
16580;BME280;8402;51.466;6.806;2024-01-10T00:00:45;102798.41;;;-3.28;69.21
16580;BME280;8402;51.466;6.806;2024-01-10T00:03:15;102793.91;;;-3.27;68.27
16580;BME280;8402;51.466;6.806;2024-01-10T00:05:45;102800.03;;;-3.27;68.33
16580;BME280;8402;51.466;6.806;2024-01-10T00:08:18;102800.88;;;-3.26;67.65
16580;BME280;8402;51.466;6.806;2024-01-10T00:10:48;102801.88;;;-3.27;67.67
16580;BME280;8402;51.466;6.806;2024-01-10T00:13:21;102802.34;;;-3.24;68.04
16580;BME280;8402;51.466;6.806;2024-01-10T00:15:51;102796.84;;;-3.22;68.41
16580;BME280;8402;51.466;6.806;2024-01-10T00:18:23;102790.25;;;-3.26;67.38
16580;BME280;8402;51.466;6.806;2024-01-10T00:20:55;102796.22;;;-3.24;68.10
16580;BME280;8402;51.466;6.806;2024-01-10T00:23:28;102785.94;;;-3.27;67.89
16580;BME280;8402;51.466;6.806;2024-01-10T00:25:58;102786.44;;;-3.32;67.66
16580;BME280;8402;51.466;6.806;2024-01-10T00:28:31;102788.78;;;-3.37;67.12
16580;BME280;8402;51.466;6.806;2024-01-10T00:31:02;102779.53;;;-3.41;67.57
16580;BME280;8402;51.466;6.806;2024-01-10T00:33:43;102782.19;;;-3.41;68.52
16580;BME280;8402;51.466;6.806;2024-01-10T00:36:13;102779.69;;;-3.43;66.90
16580;BME280;8402;51.466;6.806;2024-01-10T00:38:46;102786.16;;;-3.45;67.60
16580;BME280;8402;51.466;6.806;2024-01-10T00:41:17;102778.38;;;-3.47;68.51
16580;BME280;8402;51.466;6.806;2024-01-10T00:43:47;102774.06;;;-3.48;69.07
16580;BME280;8402;51.466;6.806;2024-01-10T00:46:17;102777.88;;;-3.50;69.06
16580;BME280;8402;51.466;6.806;2024-01-10T00:48:49;102770.91;;;-3.51;69.02
16580;BME280;8402;51.466;6.806;2024-01-10T00:51:27;102765.97;;;-3.54;68.86
16580;BME280;8402;51.466;6.806;2024-01-10T00:54:02;102777.03;;;-3.51;69.52
16580;BME280;8402;51.466;6.806;2024-01-10T00:56:33;102765.59;;;-3.51;69.84
16580;BME280;8402;51.466;6.806;2024-01-10T00:59:03;102767.63;;;-3.53;69.65
16580;BME280;8402;51.466;6.806;2024-01-10T01:01:33;102774.56;;;-3.52;69.14
16580;BME280;8402;51.466;6.806;2024-01-10T01:04:05;102769.25;;;-3.52;68.50
16580;BME280;8402;51.466;6.806;2024-01-10T01:06:41;102768.59;;;-3.46;69.47
16580;BME280;8402;51.466;6.806;2024-01-10T01:09:18;102755.66;;;-3.49;69.47
16580;BME280;8402;51.466;6.806;2024-01-10T01:11:49;102762.31;;;-3.53;68.78
16580;BME280;8402;51.466;6.806;2024-01-10T01:14:19;102764.78;;;-3.52;69.44
16580;BME280;8402;51.466;6.806;2024-01-10T01:16:49;102760.66;;;-3.54;69.74
16580;BME280;8402;51.466;6.806;2024-01-10T01:19:19;102763.31;;;-3.54;69.27
16580;BME280;8402;51.466;6.806;2024-01-10T01:21:49;102760.97;;;-3.57;69.32
16580;BME280;8402;51.466;6.806;2024-01-10T01:24:27;102755.38;;;-3.63;69.06
16580;BME280;8402;51.466;6.806;2024-01-10T01:26:58;102749.06;;;-3.62;69.19
16580;BME280;8402;51.466;6.806;2024-01-10T01:29:28;102754.69;;;-3.65;68.90
16580;BME280;8402;51.466;6.806;2024-01-10T01:31:58;102749.94;;;-3.69;68.46
16580;BME280;8402;51.466;6.806;2024-01-10T01:34:35;102757.69;;;-3.68;69.87
16580;BME280;8402;51.466;6.806;2024-01-10T01:37:07;102751.75;;;-3.70;69.60
16580;BME280;8402;51.466;6.806;2024-01-10T01:39:40;102761.03;;;-3.74;68.88
16580;BME280;8402;51.466;6.806;2024-01-10T01:42:13;102750.09;;;-3.71;70.60
16580;BME280;8402;51.466;6.806;2024-01-10T01:44:44;102742.16;;;-3.71;70.75
16580;BME280;8402;51.466;6.806;2024-01-10T01:47:14;102741.13;;;-3.70;69.87
16580;BME280;8402;51.466;6.806;2024-01-10T01:49:45;102744.63;;;-3.69;70.63
16580;BME280;8402;51.466;6.806;2024-01-10T01:52:19;102734.19;;;-3.71;70.10
16580;BME280;8402;51.466;6.806;2024-01-10T01:54:52;102735.19;;;-3.80;68.30
16580;BME280;8402;51.466;6.806;2024-01-10T01:57:22;102741.81;;;-3.76;70.03
16580;BME280;8402;51.466;6.806;2024-01-10T01:59:52;102736.50;;;-3.76;69.93
16580;BME280;8402;51.466;6.806;2024-01-10T02:02:25;102737.81;;;-3.72;70.72
16580;BME280;8402;51.466;6.806;2024-01-10T02:05:01;102740.78;;;-3.67;71.36
16580;BME280;8402;51.466;6.806;2024-01-10T02:07:31;102730.69;;;-3.63;71.56
16580;BME280;8402;51.466;6.806;2024-01-10T02:10:04;102721.72;;;-3.62;70.48
16580;BME280;8402;51.466;6.806;2024-01-10T02:12:34;102721.22;;;-3.66;70.50
16580;BME280;8402;51.466;6.806;2024-01-10T02:15:05;102739.50;;;-3.71;71.03
16580;BME280;8402;51.466;6.806;2024-01-10T02:17:35;102725.91;;;-3.76;70.49
16580;BME280;8402;51.466;6.806;2024-01-10T02:20:09;102724.91;;;-3.75;71.33
16580;BME280;8402;51.466;6.806;2024-01-10T02:22:40;102728.72;;;-3.77;71.43
16580;BME280;8402;51.466;6.806;2024-01-10T02:25:16;102721.78;;;-3.78;71.91
16580;BME280;8402;51.466;6.806;2024-01-10T02:27:49;102710.66;;;-3.82;70.34
16580;BME280;8402;51.466;6.806;2024-01-10T02:30:22;102717.97;;;-3.84;71.01
16580;BME280;8402;51.466;6.806;2024-01-10T02:32:55;102726.94;;;-3.85;71.19
16580;BME280;8402;51.466;6.806;2024-01-10T02:35:26;102724.41;;;-3.87;71.03
16580;BME280;8402;51.466;6.806;2024-01-10T02:38:00;102723.28;;;-3.92;70.52
16580;BME280;8402;51.466;6.806;2024-01-10T02:40:35;102720.66;;;-3.92;71.34
16580;BME280;8402;51.466;6.806;2024-01-10T02:43:07;102709.53;;;-3.96;72.27
16580;BME280;8402;51.466;6.806;2024-01-10T02:45:38;102713.19;;;-3.97;71.42
16580;BME280;8402;51.466;6.806;2024-01-10T02:48:08;102712.38;;;-3.97;71.20
16580;BME280;8402;51.466;6.806;2024-01-10T02:50:39;102709.88;;;-3.99;71.63
16580;BME280;8402;51.466;6.806;2024-01-10T02:53:10;102707.09;;;-4.05;70.50
16580;BME280;8402;51.466;6.806;2024-01-10T02:55:43;102703.25;;;-4.03;71.70
16580;BME280;8402;51.466;6.806;2024-01-10T02:58:15;102696.28;;;-4.04;71.88
16580;BME280;8402;51.466;6.806;2024-01-10T03:00:49;102701.25;;;-4.01;72.47
16580;BME280;8402;51.466;6.806;2024-01-10T03:03:19;102701.56;;;-3.96;72.13
16580;BME280;8402;51.466;6.806;2024-01-10T03:05:57;102709.34;;;-3.94;72.34
16580;BME280;8402;51.466;6.806;2024-01-10T03:08:27;102696.44;;;-3.97;71.45
16580;BME280;8402;51.466;6.806;2024-01-10T03:11:00;102697.75;;;-3.93;71.79
16580;BME280;8402;51.466;6.806;2024-01-10T03:13:36;102697.75;;;-3.93;71.97
16580;BME280;8402;51.466;6.806;2024-01-10T03:16:09;102685.84;;;-3.97;72.08
16580;BME280;8402;51.466;6.806;2024-01-10T03:18:40;102695.81;;;-3.99;72.23
16580;BME280;8402;51.466;6.806;2024-01-10T03:21:20;102691.47;;;-4.00;71.51
16580;BME280;8402;51.466;6.806;2024-01-10T03:23:53;102686.50;;;-4.03;70.83
16580;BME280;8402;51.466;6.806;2024-01-10T03:26:27;102683.53;;;-4.08;71.88
16580;BME280;8402;51.466;6.806;2024-01-10T03:28:57;102688.84;;;-4.08;71.82
16580;BME280;8402;51.466;6.806;2024-01-10T03:31:30;102696.47;;;-4.05;72.18
16580;BME280;8402;51.466;6.806;2024-01-10T03:34:01;102691.19;;;-4.13;71.88
16580;BME280;8402;51.466;6.806;2024-01-10T03:36:34;102686.72;;;-4.13;71.29
16580;BME280;8402;51.466;6.806;2024-01-10T03:39:05;102687.19;;;-4.09;71.70
16580;BME280;8402;51.466;6.806;2024-01-10T03:41:38;102681.41;;;-4.13;71.82
16580;BME280;8402;51.466;6.806;2024-01-10T03:44:08;102679.75;;;-4.14;72.18
16580;BME280;8402;51.466;6.806;2024-01-10T03:46:39;102675.59;;;-4.17;72.46
16580;BME280;8402;51.466;6.806;2024-01-10T03:49:10;102680.91;;;-4.17;72.60
16580;BME280;8402;51.466;6.806;2024-01-10T03:51:40;102680.25;;;-4.19;72.22
16580;BME280;8402;51.466;6.806;2024-01-10T03:54:10;102674.31;;;-4.21;72.91
16580;BME280;8402;51.466;6.806;2024-01-10T03:56:43;102680.44;;;-4.20;72.81
16580;BME280;8402;51.466;6.806;2024-01-10T03:59:14;102673.97;;;-4.26;72.96
16580;BME280;8402;51.466;6.806;2024-01-10T04:01:44;102672.31;;;-4.19;73.75
16580;BME280;8402;51.466;6.806;2024-01-10T04:04:18;102675.59;;;-4.17;73.13
16580;BME280;8402;51.466;6.806;2024-01-10T04:06:49;102672.47;;;-4.12;73.97
16580;BME280;8402;51.466;6.806;2024-01-10T04:09:19;102669.97;;;-4.13;73.20
16580;BME280;8402;51.466;6.806;2024-01-10T04:11:51;102676.25;;;-4.15;73.29
16580;BME280;8402;51.466;6.806;2024-01-10T04:14:25;102686.56;;;-4.20;72.62
16580;BME280;8402;51.466;6.806;2024-01-10T04:16:55;102682.91;;;-4.19;73.93
16580;BME280;8402;51.466;6.806;2024-01-10T04:19:26;102680.44;;;-4.20;73.63
16580;BME280;8402;51.466;6.806;2024-01-10T04:21:56;102680.56;;;-4.22;73.55
16580;BME280;8402;51.466;6.806;2024-01-10T04:24:28;102685.56;;;-4.27;73.94
16580;BME280;8402;51.466;6.806;2024-01-10T04:27:01;102686.06;;;-4.31;73.14
16580;BME280;8402;51.466;6.806;2024-01-10T04:29:36;102684.59;;;-4.34;73.57
16580;BME280;8402;51.466;6.806;2024-01-10T04:32:09;102689.91;;;-4.34;73.66
16580;BME280;8402;51.466;6.806;2024-01-10T04:34:42;102677.28;;;-4.32;74.49
16580;BME280;8402;51.466;6.806;2024-01-10T04:37:12;102673.66;;;-4.31;74.61
16580;BME280;8402;51.466;6.806;2024-01-10T04:39:43;102666.69;;;-4.32;73.92
16580;BME280;8402;51.466;6.806;2024-01-10T04:42:17;102683.25;;;-4.38;73.90
16580;BME280;8402;51.466;6.806;2024-01-10T04:44:47;102667.19;;;-4.36;74.58
16580;BME280;8402;51.466;6.806;2024-01-10T04:47:18;102674.31;;;-4.37;74.23
16580;BME280;8402;51.466;6.806;2024-01-10T04:49:48;102665.34;;;-4.36;74.34
16580;BME280;8402;51.466;6.806;2024-01-10T04:52:18;102667.34;;;-4.38;74.74
16580;BME280;8402;51.466;6.806;2024-01-10T04:54:51;102674.31;;;-4.37;75.11
16580;BME280;8402;51.466;6.806;2024-01-10T04:57:24;102670.84;;;-4.37;74.52
16580;BME280;8402;51.466;6.806;2024-01-10T04:59:54;102667.34;;;-4.38;74.62
16580;BME280;8402;51.466;6.806;2024-01-10T05:02:25;102658.41;;;-4.37;75.18
16580;BME280;8402;51.466;6.806;2024-01-10T05:05:05;102660.06;;;-4.36;74.69
16580;BME280;8402;51.466;6.806;2024-01-10T05:07:36;102657.91;;;-4.32;75.36
16580;BME280;8402;51.466;6.806;2024-01-10T05:10:07;102659.41;;;-4.30;75.02
16580;BME280;8402;51.466;6.806;2024-01-10T05:12:40;102660.41;;;-4.31;74.57
16580;BME280;8402;51.466;6.806;2024-01-10T05:15:11;102659.41;;;-4.30;75.16
16580;BME280;8402;51.466;6.806;2024-01-10T05:17:44;102650.44;;;-4.29;74.93
16580;BME280;8402;51.466;6.806;2024-01-10T05:20:14;102653.44;;;-4.32;74.19
16580;BME280;8402;51.466;6.806;2024-01-10T05:22:44;102648.50;;;-4.35;74.89
16580;BME280;8402;51.466;6.806;2024-01-10T05:25:13;102660.91;;;-4.35;74.31
16580;BME280;8402;51.466;6.806;2024-01-10T05:27:48;102663.72;;;-4.37;74.51
16580;BME280;8402;51.466;6.806;2024-01-10T05:30:17;102664.06;;;-4.40;74.60
16580;BME280;8402;51.466;6.806;2024-01-10T05:32:49;102660.41;;;-4.39;75.30
16580;BME280;8402;51.466;6.806;2024-01-10T05:35:19;102666.06;;;-4.42;74.60
16580;BME280;8402;51.466;6.806;2024-01-10T05:37:51;102672.19;;;-4.41;74.89
16580;BME280;8402;51.466;6.806;2024-01-10T05:40:21;102679.44;;;-4.44;74.45
16580;BME280;8402;51.466;6.806;2024-01-10T05:42:54;102677.31;;;-4.48;73.60
16580;BME280;8402;51.466;6.806;2024-01-10T05:45:24;102680.47;;;-4.53;73.77
16580;BME280;8402;51.466;6.806;2024-01-10T05:47:55;102676.16;;;-4.54;73.73
16580;BME280;8402;51.466;6.806;2024-01-10T05:50:25;102678.66;;;-4.60;73.53
16580;BME280;8402;51.466;6.806;2024-01-10T05:52:55;102684.44;;;-4.57;74.64
16580;BME280;8402;51.466;6.806;2024-01-10T05:55:25;102674.34;;;-4.61;74.16
16580;BME280;8402;51.466;6.806;2024-01-10T05:57:58;102674.16;;;-4.60;75.37
16580;BME280;8402;51.466;6.806;2024-01-10T06:00:30;102667.69;;;-4.57;75.16
16580;BME280;8402;51.466;6.806;2024-01-10T06:03:00;102673.69;;;-4.63;74.47
16580;BME280;8402;51.466;6.806;2024-01-10T06:05:30;102674.00;;;-4.58;74.61
16580;BME280;8402;51.466;6.806;2024-01-10T06:08:03;102675.16;;;-4.53;76.33
16580;BME280;8402;51.466;6.806;2024-01-10T06:10:34;102668.69;;;-4.50;74.78
16580;BME280;8402;51.466;6.806;2024-01-10T06:13:07;102664.38;;;-4.51;74.33
16580;BME280;8402;51.466;6.806;2024-01-10T06:15:37;102667.72;;;-4.49;74.92
16580;BME280;8402;51.466;6.806;2024-01-10T06:18:07;102679.97;;;-4.48;75.34
16580;BME280;8402;51.466;6.806;2024-01-10T06:20:37;102679.28;;;-4.50;74.65
16580;BME280;8402;51.466;6.806;2024-01-10T06:23:07;102674.84;;;-4.50;75.50
16580;BME280;8402;51.466;6.806;2024-01-10T06:25:37;102675.31;;;-4.46;75.55
16580;BME280;8402;51.466;6.806;2024-01-10T06:28:09;102675.31;;;-4.46;75.17
16580;BME280;8402;51.466;6.806;2024-01-10T06:30:39;102676.97;;;-4.53;73.24
16580;BME280;8402;51.466;6.806;2024-01-10T06:33:12;102677.31;;;-4.64;73.41
16580;BME280;8402;51.466;6.806;2024-01-10T06:35:42;102680.47;;;-4.61;75.02
16580;BME280;8402;51.466;6.806;2024-01-10T06:38:12;102685.59;;;-4.59;75.63
16580;BME280;8402;51.466;6.806;2024-01-10T06:40:44;102679.16;;;-4.57;75.91
16580;BME280;8402;51.466;6.806;2024-01-10T06:43:17;102674.69;;;-4.56;74.92
16580;BME280;8402;51.466;6.806;2024-01-10T06:45:47;102681.81;;;-4.57;75.09
16580;BME280;8402;51.466;6.806;2024-01-10T06:48:17;102675.00;;;-4.59;75.68
16580;BME280;8402;51.466;6.806;2024-01-10T06:50:47;102676.00;;;-4.60;75.67
16580;BME280;8402;51.466;6.806;2024-01-10T06:53:17;102662.28;;;-4.64;75.26
16580;BME280;8402;51.466;6.806;2024-01-10T06:55:47;102665.41;;;-4.60;75.91
16580;BME280;8402;51.466;6.806;2024-01-10T06:58:20;102671.69;;;-4.61;75.37
16580;BME280;8402;51.466;6.806;2024-01-10T07:00:50;102685.25;;;-4.64;74.99
16580;BME280;8402;51.466;6.806;2024-01-10T07:03:21;102683.94;;;-4.68;74.74
16580;BME280;8402;51.466;6.806;2024-01-10T07:05:51;102676.66;;;-4.66;75.60
16580;BME280;8402;51.466;6.806;2024-01-10T07:08:20;102674.34;;;-4.61;75.99
16580;BME280;8402;51.466;6.806;2024-01-10T07:10:50;102675.66;;;-4.57;75.89
16580;BME280;8402;51.466;6.806;2024-01-10T07:13:25;102675.00;;;-4.59;74.16
16580;BME280;8402;51.466;6.806;2024-01-10T07:15:55;102680.63;;;-4.54;75.73
16580;BME280;8402;51.466;6.806;2024-01-10T07:18:25;102678.66;;;-4.60;74.98
16580;BME280;8402;51.466;6.806;2024-01-10T07:20:55;102668.03;;;-4.60;74.88
16580;BME280;8402;51.466;6.806;2024-01-10T07:23:25;102675.66;;;-4.57;75.59
16580;BME280;8402;51.466;6.806;2024-01-10T07:25:55;102676.50;;;-4.57;75.82
16580;BME280;8402;51.466;6.806;2024-01-10T07:28:28;102668.69;;;-4.58;75.61
16580;BME280;8402;51.466;6.806;2024-01-10T07:30:59;102675.81;;;-4.59;75.20
16580;BME280;8402;51.466;6.806;2024-01-10T07:33:29;102675.34;;;-4.62;74.63
16580;BME280;8402;51.466;6.806;2024-01-10T07:36:01;102676.66;;;-4.58;75.61
16580;BME280;8402;51.466;6.806;2024-01-10T07:38:30;102681.63;;;-4.63;74.55
16580;BME280;8402;51.466;6.806;2024-01-10T07:41:03;102683.78;;;-4.67;74.90
16580;BME280;8402;51.466;6.806;2024-01-10T07:43:36;102676.00;;;-4.68;74.60
16580;BME280;8402;51.466;6.806;2024-01-10T07:46:06;102675.81;;;-4.67;75.43
16580;BME280;8402;51.466;6.806;2024-01-10T07:48:36;102674.66;;;-4.64;75.63
16580;BME280;8402;51.466;6.806;2024-01-10T07:51:06;102679.00;;;-4.63;75.66
16580;BME280;8402;51.466;6.806;2024-01-10T07:53:36;102675.34;;;-4.62;75.82
16580;BME280;8402;51.466;6.806;2024-01-10T07:56:06;102678.66;;;-4.60;77.04
16580;BME280;8402;51.466;6.806;2024-01-10T07:58:39;102670.88;;;-4.62;75.64
16580;BME280;8402;51.466;6.806;2024-01-10T08:01:09;102680.63;;;-4.62;74.92
16580;BME280;8402;51.466;6.806;2024-01-10T08:03:39;102680.63;;;-4.62;75.19
16580;BME280;8402;51.466;6.806;2024-01-10T08:06:09;102680.63;;;-4.62;76.20
16580;BME280;8402;51.466;6.806;2024-01-10T08:08:52;102673.34;;;-4.60;77.00
16580;BME280;8402;51.466;6.806;2024-01-10T08:11:22;102670.34;;;-4.57;75.82
16580;BME280;8402;51.466;6.806;2024-01-10T08:13:55;102668.69;;;-4.50;76.70
16580;BME280;8402;51.466;6.806;2024-01-10T08:16:25;102677.31;;;-4.48;75.95
16580;BME280;8402;51.466;6.806;2024-01-10T08:18:55;102678.78;;;-4.46;75.88
16580;BME280;8402;51.466;6.806;2024-01-10T08:21:26;102678.97;;;-4.47;75.24
16580;BME280;8402;51.466;6.806;2024-01-10T08:23:56;102678.16;;;-4.48;75.55
16580;BME280;8402;51.466;6.806;2024-01-10T08:26:26;102685.91;;;-4.46;75.64
16580;BME280;8402;51.466;6.806;2024-01-10T08:28:59;102675.66;;;-4.49;74.22
16580;BME280;8402;51.466;6.806;2024-01-10T08:31:29;102682.63;;;-4.48;74.90
16580;BME280;8402;51.466;6.806;2024-01-10T08:34:00;102680.97;;;-4.49;74.58
16580;BME280;8402;51.466;6.806;2024-01-10T08:36:30;102683.63;;;-4.49;74.75
16580;BME280;8402;51.466;6.806;2024-01-10T08:39:00;102686.56;;;-4.44;75.71
16580;BME280;8402;51.466;6.806;2024-01-10T08:41:33;102688.91;;;-4.41;75.96
16580;BME280;8402;51.466;6.806;2024-01-10T08:44:12;102684.91;;;-4.37;77.08
16580;BME280;8402;51.466;6.806;2024-01-10T08:46:46;102683.09;;;-4.36;75.96
16580;BME280;8402;51.466;6.806;2024-01-10T08:49:18;102673.16;;;-4.34;74.91
16580;BME280;8402;51.466;6.806;2024-01-10T08:51:48;102679.78;;;-4.30;75.55
16580;BME280;8402;51.466;6.806;2024-01-10T08:54:20;102679.59;;;-4.29;75.39
16580;BME280;8402;51.466;6.806;2024-01-10T08:56:51;102685.56;;;-4.27;74.05
16580;BME280;8402;51.466;6.806;2024-01-10T08:59:24;102686.06;;;-4.23;74.68
16580;BME280;8402;51.466;6.806;2024-01-10T09:01:56;102688.53;;;-4.22;74.38
16580;BME280;8402;51.466;6.806;2024-01-10T09:04:26;102689.88;;;-4.18;72.83
16580;BME280;8402;51.466;6.806;2024-01-10T09:06:55;102697.31;;;-4.13;73.62
16580;BME280;8402;51.466;6.806;2024-01-10T09:09:24;102695.50;;;-4.12;72.11
16580;BME280;8402;51.466;6.806;2024-01-10T09:11:54;102697.47;;;-4.06;72.86
16580;BME280;8402;51.466;6.806;2024-01-10T09:14:27;102693.28;;;-4.01;72.94
16580;BME280;8402;51.466;6.806;2024-01-10T09:16:57;102701.25;;;-3.93;73.11
16580;BME280;8402;51.466;6.806;2024-01-10T09:19:29;102700.41;;;-3.85;73.62
16580;BME280;8402;51.466;6.806;2024-01-10T09:22:00;102691.44;;;-3.84;72.80
16580;BME280;8402;51.466;6.806;2024-01-10T09:24:40;102702.66;;;-3.74;72.97
16580;BME280;8402;51.466;6.806;2024-01-10T09:27:13;102696.03;;;-3.70;73.15
16580;BME280;8402;51.466;6.806;2024-01-10T09:29:49;102682.41;;;-3.67;72.67
16580;BME280;8402;51.466;6.806;2024-01-10T09:32:23;102699.66;;;-3.63;72.52
16580;BME280;8402;51.466;6.806;2024-01-10T09:34:54;102687.03;;;-3.61;72.87
16580;BME280;8402;51.466;6.806;2024-01-10T09:37:24;102697.28;;;-3.57;71.85
16580;BME280;8402;51.466;6.806;2024-01-10T09:40:09;102688.19;;;-3.55;71.31
16580;BME280;8402;51.466;6.806;2024-01-10T09:42:43;102695.47;;;-3.49;71.93
16580;BME280;8402;51.466;6.806;2024-01-10T09:45:21;102694.28;;;-3.46;71.71
16580;BME280;8402;51.466;6.806;2024-01-10T09:47:55;102697.25;;;-3.41;72.70
16580;BME280;8402;51.466;6.806;2024-01-10T09:50:30;102699.22;;;-3.35;71.46
16580;BME280;8402;51.466;6.806;2024-01-10T09:53:05;102702.00;;;-3.28;70.83
16580;BME280;8402;51.466;6.806;2024-01-10T09:55:37;102699.44;;;-3.22;72.21
16580;BME280;8402;51.466;6.806;2024-01-10T09:58:08;102701.41;;;-3.16;71.34
16580;BME280;8402;51.466;6.806;2024-01-10T10:00:41;102692.09;;;-3.12;72.10
16580;BME280;8402;51.466;6.806;2024-01-10T10:03:11;102691.75;;;-3.09;71.67
16580;BME280;8402;51.466;6.806;2024-01-10T10:05:44;102694.34;;;-3.00;71.63
16580;BME280;8402;51.466;6.806;2024-01-10T10:08:15;102690.34;;;-2.96;71.44
16580;BME280;8402;51.466;6.806;2024-01-10T10:10:50;102691.66;;;-2.92;72.06
16580;BME280;8402;51.466;6.806;2024-01-10T10:13:26;102692.94;;;-2.88;70.70
16580;BME280;8402;51.466;6.806;2024-01-10T10:16:03;102693.25;;;-2.83;68.65
16580;BME280;8402;51.466;6.806;2024-01-10T10:18:34;102691.53;;;-2.76;67.24
16580;BME280;8402;51.466;6.806;2024-01-10T10:21:08;102690.00;;;-2.70;69.03
16580;BME280;8402;51.466;6.806;2024-01-10T10:23:41;102678.66;;;-2.64;69.70
16580;BME280;8402;51.466;6.806;2024-01-10T10:26:12;102687.72;;;-2.59;70.12
16580;BME280;8402;51.466;6.806;2024-01-10T10:28:47;102689.03;;;-2.55;69.80
16580;BME280;8402;51.466;6.806;2024-01-10T10:31:20;102680.88;;;-2.53;68.36
16580;BME280;8402;51.466;6.806;2024-01-10T10:33:51;102690.78;;;-2.47;68.36
16580;BME280;8402;51.466;6.806;2024-01-10T10:36:30;102687.22;;;-2.39;67.31
16580;BME280;8402;51.466;6.806;2024-01-10T10:39:00;102681.91;;;-2.39;66.91
16580;BME280;8402;51.466;6.806;2024-01-10T10:41:31;102684.50;;;-2.31;68.61
16580;BME280;8402;51.466;6.806;2024-01-10T10:44:07;102682.56;;;-2.23;66.86
16580;BME280;8402;51.466;6.806;2024-01-10T10:46:43;102678.75;;;-2.20;65.76
16580;BME280;8402;51.466;6.806;2024-01-10T10:49:26;102679.47;;;-2.11;67.87
16580;BME280;8402;51.466;6.806;2024-01-10T10:52:01;102678.94;;;-2.07;68.33
16580;BME280;8402;51.466;6.806;2024-01-10T10:54:33;102676.28;;;-2.07;67.98
16580;BME280;8402;51.466;6.806;2024-01-10T10:57:05;102677.56;;;-2.03;68.04
16580;BME280;8402;51.466;6.806;2024-01-10T10:59:36;102671.50;;;-1.97;66.58
16580;BME280;8402;51.466;6.806;2024-01-10T11:02:10;102672.25;;;-1.88;67.40
16580;BME280;8402;51.466;6.806;2024-01-10T11:04:40;102659.03;;;-1.81;68.27
16580;BME280;8402;51.466;6.806;2024-01-10T11:07:11;102665.63;;;-1.77;67.98
16580;BME280;8402;51.466;6.806;2024-01-10T11:09:42;102668.75;;;-1.74;67.51
16580;BME280;8402;51.466;6.806;2024-01-10T11:12:32;102663.69;;;-1.69;67.53
16580;BME280;8402;51.466;6.806;2024-01-10T11:15:19;102663.78;;;-1.62;67.15
16580;BME280;8402;51.466;6.806;2024-01-10T11:18:06;102657.72;;;-1.56;67.73
16580;BME280;8402;51.466;6.806;2024-01-10T11:20:51;102657.81;;;-1.49;66.79
16580;BME280;8402;51.466;6.806;2024-01-10T11:23:38;102667.25;;;-1.47;67.19
16580;BME280;8402;51.466;6.806;2024-01-10T11:26:11;102659.06;;;-1.45;67.42
16580;BME280;8402;51.466;6.806;2024-01-10T11:28:51;102664.03;;;-1.42;67.02
16580;BME280;8402;51.466;6.806;2024-01-10T11:31:27;102660.34;;;-1.41;65.57
16580;BME280;8402;51.466;6.806;2024-01-10T11:34:01;102646.47;;;-1.36;65.54
16580;BME280;8402;51.466;6.806;2024-01-10T11:36:32;102655.72;;;-1.32;66.99
16580;BME280;8402;51.466;6.806;2024-01-10T11:39:04;102649.03;;;-1.28;65.49
16580;BME280;8402;51.466;6.806;2024-01-10T11:41:38;102638.41;;;-1.22;66.09
16580;BME280;8402;51.466;6.806;2024-01-10T11:44:30;102637.59;;;-1.22;65.28
16580;BME280;8402;51.466;6.806;2024-01-10T11:47:04;102636.03;;;-1.17;65.67
16580;BME280;8402;51.466;6.806;2024-01-10T11:49:37;102638.13;;;-1.12;65.81
16580;BME280;8402;51.466;6.806;2024-01-10T11:52:08;102632.88;;;-1.05;63.52
16580;BME280;8402;51.466;6.806;2024-01-10T11:54:40;102634.94;;;-1.01;63.68
16580;BME280;8402;51.466;6.806;2024-01-10T11:57:19;102634.56;;;-0.98;63.52
16580;BME280;8402;51.466;6.806;2024-01-10T11:59:51;102628.50;;;-0.92;65.44
16580;BME280;8402;51.466;6.806;2024-01-10T12:02:22;102623.78;;;-0.90;63.98
16580;BME280;8402;51.466;6.806;2024-01-10T12:04:56;102624.88;;;-0.84;64.66
16580;BME280;8402;51.466;6.806;2024-01-10T12:07:26;102622.63;;;-0.80;63.96
16580;BME280;8402;51.466;6.806;2024-01-10T12:10:00;102621.44;;;-0.78;64.28
16580;BME280;8402;51.466;6.806;2024-01-10T12:12:30;102626.56;;;-0.76;64.15
16580;BME280;8402;51.466;6.806;2024-01-10T12:15:00;102625.81;;;-0.70;65.39
16580;BME280;8402;51.466;6.806;2024-01-10T12:17:30;102631.13;;;-0.70;63.47
16580;BME280;8402;51.466;6.806;2024-01-10T12:20:03;102629.34;;;-0.63;64.82
16580;BME280;8402;51.466;6.806;2024-01-10T12:22:34;102630.78;;;-0.61;64.86
16580;BME280;8402;51.466;6.806;2024-01-10T12:25:04;102618.13;;;-0.52;64.25
16580;BME280;8402;51.466;6.806;2024-01-10T12:27:34;102622.44;;;-0.51;64.55
16580;BME280;8402;51.466;6.806;2024-01-10T12:30:06;102624.13;;;-0.50;61.82
16580;BME280;8402;51.466;6.806;2024-01-10T12:32:50;102633.00;;;-0.43;63.34
16580;BME280;8402;51.466;6.806;2024-01-10T12:35:22;102620.28;;;-0.41;62.57
16580;BME280;8402;51.466;6.806;2024-01-10T12:37:55;102631.00;;;-0.34;63.33
16580;BME280;8402;51.466;6.806;2024-01-10T12:40:26;102624.06;;;-0.29;63.08
16580;BME280;8402;51.466;6.806;2024-01-10T12:43:02;102623.03;;;-0.28;62.25
16580;BME280;8402;51.466;6.806;2024-01-10T12:45:32;102616.91;;;-0.21;62.63
16580;BME280;8402;51.466;6.806;2024-01-10T12:48:02;102615.50;;;-0.17;63.20
16580;BME280;8402;51.466;6.806;2024-01-10T12:50:37;102617.97;;;-0.16;62.94
16580;BME280;8402;51.466;6.806;2024-01-10T12:53:08;102614.72;;;-0.11;61.01
16580;BME280;8402;51.466;6.806;2024-01-10T12:55:37;102616.41;;;-0.04;58.85
16580;BME280;8402;51.466;6.806;2024-01-10T12:58:07;102614.16;;;0.00;61.44
16580;BME280;8402;51.466;6.806;2024-01-10T13:00:37;102611.50;;;0.00;61.40
16580;BME280;8402;51.466;6.806;2024-01-10T13:03:08;102618.47;;;0.01;61.95
16580;BME280;8402;51.466;6.806;2024-01-10T13:05:40;102622.59;;;0.04;61.59
16580;BME280;8402;51.466;6.806;2024-01-10T13:08:10;102621.34;;;0.06;61.31
16580;BME280;8402;51.466;6.806;2024-01-10T13:10:41;102615.84;;;0.08;62.21
16580;BME280;8402;51.466;6.806;2024-01-10T13:13:11;102619.34;;;0.08;61.91
16580;BME280;8402;51.466;6.806;2024-01-10T13:15:41;102609.91;;;0.12;62.04
16580;BME280;8402;51.466;6.806;2024-01-10T13:18:12;102604.78;;;0.17;61.53
16580;BME280;8402;51.466;6.806;2024-01-10T13:20:46;102606.66;;;0.23;61.55
16580;BME280;8402;51.466;6.806;2024-01-10T13:23:26;102606.25;;;0.26;62.78
16580;BME280;8402;51.466;6.806;2024-01-10T13:25:56;102606.25;;;0.26;61.11